Time;durP1;ratioP1;P1;durP2;ratioP2;P2;SDS_P1;SDS_P2;PMS_P1;PMS_P2;Temp;Humidity;BMP_temperature;BMP_pressure;BME280_temperature;BME280_humidity;BME280_pressure;Samples;Min_cycle;Max_cycle;Signal;HPM_P1;HPM_P2
2022/03/30 00:00:34;;;;;;;27.40;11.27;;;10.70;60.90;;;;;;5135807;28;20032;-66
2022/03/30 00:03:00;;;;;;;27.13;11.00;;;10.80;60.60;;;;;;5134880;28;20043;-66
2022/03/30 00:05:25;;;;;;;25.83;11.10;;;10.80;60.40;;;;;;5135804;28;20031;-66
2022/03/30 00:07:55;;;;;;;26.20;11.52;;;10.80;60.30;;;;;;5135756;28;20024;-66
2022/03/30 00:10:21;;;;;;;25.77;11.10;;;10.80;60.30;;;;;;5134665;28;20047;-66
2022/03/30 00:12:47;;;;;;;22.73;11.10;;;10.70;60.30;;;;;;5135688;28;20077;-67
2022/03/30 00:15:14;;;;;;;26.45;11.30;;;10.70;60.30;;;;;;5135597;28;20028;-66
2022/03/30 00:17:39;;;;;;;26.35;10.63;;;10.70;60.20;;;;;;5135599;28;20073;-66
2022/03/30 00:20:06;;;;;;;26.85;10.75;;;10.60;60.20;;;;;;5117504;28;20061;-66
2022/03/30 00:22:31;;;;;;;28.92;11.68;;;10.60;60.20;;;;;;5135476;28;20028;-66
2022/03/30 00:24:57;;;;;;;27.00;10.55;;;10.50;60.30;;;;;;5135406;28;20016;-66
2022/03/30 00:27:23;;;;;;;28.42;11.10;;;10.40;60.60;;;;;;5133113;28;20522;-66
2022/03/30 00:29:49;;;;;;;26.15;10.52;;;10.40;60.80;;;;;;5135351;28;20035;-66
2022/03/30 00:32:15;;;;;;;25.35;11.00;;;10.40;60.80;;;;;;5134219;28;20031;-66
2022/03/30 00:34:40;;;;;;;25.35;11.52;;;10.30;61.10;;;;;;5135255;28;20092;-66
2022/03/30 00:37:09;;;;;;;22.63;10.45;;;10.20;61.40;;;;;;5135176;28;20032;-66
2022/03/30 00:39:35;;;;;;;23.42;10.35;;;10.20;61.70;;;;;;5135051;28;20028;-66
2022/03/30 00:42:01;;;;;;;26.02;10.88;;;10.10;61.80;;;;;;5135081;28;20058;-66
2022/03/30 00:44:27;;;;;;;27.42;10.80;;;10.10;61.70;;;;;;5135014;28;20447;-66
2022/03/30 00:46:53;;;;;;;23.27;10.52;;;10.10;61.60;;;;;;5134938;28;20028;-66
2022/03/30 00:49:18;;;;;;;24.05;10.35;;;10.10;61.80;;;;;;5134954;28;20028;-66
2022/03/30 00:51:44;;;;;;;25.42;10.75;;;10.00;62.10;;;;;;5134878;28;20075;-66
2022/03/30 00:54:10;;;;;;;23.67;10.20;;;10.00;62.10;;;;;;5134838;28;20031;-66
2022/03/30 00:56:39;;;;;;;24.10;10.20;;;10.00;62.20;;;;;;5134821;28;20109;-67
2022/03/30 00:59:05;;;;;;;25.83;10.85;;;9.90;62.30;;;;;;5134681;28;20024;-66
2022/03/30 01:01:32;;;;;;;25.08;10.50;;;9.90;63.50;;;;;;5134669;28;20027;-66
2022/03/30 01:03:58;;;;;;;25.92;10.60;;;9.90;62.80;;;;;;5134683;28;20035;-66
2022/03/30 01:06:24;;;;;;;28.23;10.35;;;10.00;62.50;;;;;;5134629;28;20024;-66
2022/03/30 01:08:50;;;;;;;27.60;10.98;;;9.90;62.20;;;;;;5134535;28;20050;-66
2022/03/30 01:11:16;;;;;;;23.10;10.20;;;10.00;62.30;;;;;;5133438;28;20012;-66
2022/03/30 01:13:42;;;;;;;23.30;11.02;;;9.90;62.30;;;;;;5134513;28;20032;-66
2022/03/30 01:16:08;;;;;;;26.83;11.20;;;9.80;62.60;;;;;;5134596;28;20043;-66
2022/03/30 01:18:40;;;;;;;23.10;10.80;;;9.80;62.70;;;;;;5134303;28;20057;-66
2022/03/30 01:21:08;;;;;;;23.55;10.57;;;9.80;62.70;;;;;;5134406;28;20028;-67
2022/03/30 01:23:34;;;;;;;24.23;10.82;;;9.90;62.60;;;;;;5134329;28;20024;-66
2022/03/30 01:26:00;;;;;;;23.85;10.50;;;9.90;62.30;;;;;;5134135;28;20063;-66
2022/03/30 01:28:28;;;;;;;28.52;11.30;;;9.90;62.30;;;;;;5134164;28;20104;-66
2022/03/30 01:33:48;;;;;;;34.55;11.20;;;9.90;62.20;;;;;;5134448;28;20057;-67
2022/03/30 01:36:17;;;;;;;29.75;11.52;;;9.90;62.10;;;;;;5134191;28;20038;-66
2022/03/30 01:38:43;;;;;;;25.52;11.15;;;9.80;62.00;;;;;;5133755;28;20028;-67
2022/03/30 01:41:08;;;;;;;25.42;10.77;;;9.70;62.10;;;;;;5133927;28;20016;-67
2022/03/30 01:43:34;;;;;;;24.88;11.15;;;9.70;62.20;;;;;;5134008;28;20049;-66
2022/03/30 01:46:00;;;;;;;24.13;10.55;;;9.70;62.10;;;;;;5133960;28;20081;-66
2022/03/30 01:48:26;;;;;;;26.17;10.38;;;9.60;62.10;;;;;;5133958;28;20027;-66
2022/03/30 01:50:51;;;;;;;25.85;10.75;;;9.50;62.60;;;;;;5133955;28;20020;-67
2022/03/30 01:53:17;;;;;;;26.00;11.05;;;9.40;62.90;;;;;;5133868;28;20483;-66
2022/03/30 01:55:43;;;;;;;26.08;11.77;;;9.40;62.90;;;;;;5133930;28;20038;-66
2022/03/30 01:58:08;;;;;;;31.88;10.52;;;9.30;63.00;;;;;;5133966;28;20020;-66
2022/03/30 02:00:35;;;;;;;25.63;10.68;;;9.20;63.20;;;;;;5132978;28;20020;-67
2022/03/30 02:03:01;;;;;;;27.50;11.45;;;9.10;63.60;;;;;;5133755;28;20016;-66
2022/03/30 02:05:28;;;;;;;28.25;11.52;;;9.10;64.40;;;;;;5132726;28;20042;-66
2022/03/30 02:07:54;;;;;;;25.50;11.25;;;9.10;63.90;;;;;;5133801;28;20041;-66
2022/03/30 02:10:20;;;;;;;23.83;9.98;;;9.00;63.90;;;;;;5133737;28;20023;-66
2022/03/30 02:12:46;;;;;;;27.08;11.23;;;8.90;64.20;;;;;;5133759;28;20034;-66
2022/03/30 02:15:13;;;;;;;24.48;11.10;;;9.00;64.00;;;;;;5133669;28;20083;-66
2022/03/30 02:17:39;;;;;;;23.52;10.52;;;9.00;64.30;;;;;;5133658;28;20095;-66
2022/03/30 02:20:05;;;;;;;25.73;10.18;;;8.90;64.50;;;;;;5133578;28;20015;-66
2022/03/30 02:22:31;;;;;;;29.25;10.55;;;9.00;64.40;;;;;;5133601;28;20020;-66
2022/03/30 02:24:57;;;;;;;28.75;9.68;;;9.00;64.40;;;;;;5133566;28;20059;-67
2022/03/30 02:27:23;;;;;;;28.20;10.57;;;9.00;64.30;;;;;;5133421;28;20059;-66
2022/03/30 02:29:51;;;;;;;25.10;11.30;;;9.00;64.30;;;;;;5132424;28;20057;-67
2022/03/30 02:32:18;;;;;;;22.55;10.05;;;9.00;64.20;;;;;;5132499;28;20020;-66
2022/03/30 02:34:44;;;;;;;23.23;10.10;;;9.00;64.00;;;;;;5133527;28;20031;-66
2022/03/30 02:37:10;;;;;;;26.88;10.85;;;9.00;63.90;;;;;;5133518;28;20038;-66
2022/03/30 02:39:37;;;;;;;24.38;10.73;;;9.10;63.80;;;;;;5133391;28;20027;-66
2022/03/30 02:42:03;;;;;;;25.85;10.85;;;9.10;63.60;;;;;;5133478;28;20016;-67
2022/03/30 02:44:29;;;;;;;23.60;11.20;;;9.20;63.50;;;;;;5133440;28;20019;-67
2022/03/30 02:46:55;;;;;;;29.63;11.30;;;9.10;63.50;;;;;;5133381;28;20031;-67
2022/03/30 02:49:20;;;;;;;25.10;10.32;;;9.10;63.50;;;;;;5133351;28;20385;-66
2022/03/30 02:51:46;;;;;;;24.88;11.10;;;9.20;63.50;;;;;;5136016;28;20019;-66
2022/03/30 02:54:12;;;;;;;28.30;11.05;;;9.20;63.40;;;;;;5137330;28;20023;-66
2022/03/30 02:56:38;;;;;;;22.27;11.30;;;9.20;63.30;;;;;;5137194;28;20096;-67
2022/03/30 02:59:04;;;;;;;30.35;11.45;;;9.20;63.40;;;;;;5137035;28;20096;-67
2022/03/30 03:01:29;;;;;;;23.13;10.45;;;9.00;63.80;;;;;;5119178;28;20036;-66
2022/03/30 03:03:55;;;;;;;26.52;11.00;;;8.90;64.30;;;;;;5137051;28;20058;-66
2022/03/30 03:06:21;;;;;;;28.80;11.48;;;8.80;64.60;;;;;;5136981;28;20034;-66
2022/03/30 03:08:46;;;;;;;27.02;10.77;;;8.90;64.60;;;;;;5136900;28;20027;-67
2022/03/30 03:11:13;;;;;;;29.27;11.10;;;8.90;64.40;;;;;;5136842;28;20115;-66
2022/03/30 03:13:38;;;;;;;27.63;11.45;;;9.00;64.40;;;;;;5136824;28;20020;-67
2022/03/30 03:16:05;;;;;;;29.67;11.85;;;8.90;64.50;;;;;;5136762;28;20027;-67
2022/03/30 03:18:31;;;;;;;28.20;10.68;;;8.90;64.60;;;;;;5136679;28;20024;-67
2022/03/30 03:20:56;;;;;;;30.98;11.43;;;8.90;64.50;;;;;;5136704;28;20080;-67
2022/03/30 03:23:22;;;;;;;27.05;11.60;;;8.80;64.70;;;;;;5136627;28;20024;-67
2022/03/30 03:25:48;;;;;;;23.70;10.90;;;8.90;64.80;;;;;;5136424;28;20055;-67
2022/03/30 03:28:14;;;;;;;26.73;10.98;;;8.60;66.00;;;;;;5136488;28;20020;-67
2022/03/30 03:30:42;;;;;;;31.75;11.20;;;8.60;65.30;;;;;;5136480;28;20185;-67
2022/03/30 03:33:09;;;;;;;27.85;11.43;;;8.70;65.30;;;;;;5136471;28;20020;-67
2022/03/30 03:35:35;;;;;;;27.35;11.07;;;8.70;65.20;;;;;;5136434;28;20422;-67
2022/03/30 03:38:01;;;;;;;27.20;11.18;;;8.60;65.00;;;;;;5136361;28;20032;-67
2022/03/30 03:40:27;;;;;;;24.40;10.80;;;8.60;65.10;;;;;;5136267;28;20035;-67
2022/03/30 03:42:53;;;;;;;27.17;11.85;;;8.70;65.00;;;;;;5136296;28;20083;-67
2022/03/30 03:45:20;;;;;;;27.95;11.65;;;8.70;64.80;;;;;;5136271;28;20046;-67
2022/03/30 03:47:47;;;;;;;22.40;10.45;;;8.70;64.70;;;;;;5136207;28;20083;-67
2022/03/30 03:50:13;;;;;;;28.52;11.27;;;8.70;64.60;;;;;;5135083;28;20091;-67
2022/03/30 03:52:39;;;;;;;26.02;10.35;;;8.70;64.60;;;;;;5136092;28;20102;-67
2022/03/30 03:55:05;;;;;;;30.88;11.43;;;8.70;64.50;;;;;;5136039;28;20023;-67
2022/03/30 03:57:33;;;;;;;30.13;11.98;;;8.60;64.70;;;;;;5136019;28;20031;-67
2022/03/30 03:59:59;;;;;;;27.85;11.07;;;8.50;64.90;;;;;;5135874;28;20035;-67
2022/03/30 04:02:25;;;;;;;25.17;10.68;;;8.50;65.10;;;;;;5134801;28;20091;-67
2022/03/30 04:04:51;;;;;;;28.13;10.95;;;8.20;65.50;;;;;;5135846;28;20496;-67
2022/03/30 04:07:16;;;;;;;29.92;12.10;;;8.10;66.10;;;;;;5135820;28;20047;-67
2022/03/30 04:09:42;;;;;;;31.17;11.25;;;8.10;66.00;;;;;;5135739;28;20016;-67
2022/03/30 04:12:08;;;;;;;37.30;12.50;;;8.20;65.80;;;;;;5134843;28;20535;-67
2022/03/30 04:14:33;;;;;;;27.60;11.32;;;8.20;65.80;;;;;;5135735;28;20020;-67
2022/03/30 04:16:59;;;;;;;30.50;11.82;;;8.10;65.90;;;;;;5135579;28;20476;-67
2022/03/30 04:19:25;;;;;;;26.42;10.93;;;7.90;66.40;;;;;;5135565;28;20039;-67
2022/03/30 04:21:51;;;;;;;25.95;11.10;;;7.80;66.60;;;;;;5135527;28;20024;-67
2022/03/30 04:24:17;;;;;;;26.40;11.15;;;8.00;66.40;;;;;;5135436;28;20020;-67
2022/03/30 04:26:42;;;;;;;27.35;11.07;;;7.80;66.40;;;;;;5135214;28;20073;-67
2022/03/30 04:29:08;;;;;;;27.13;11.05;;;7.90;66.40;;;;;;5134347;28;20130;-67
2022/03/30 04:31:34;;;;;;;25.70;10.55;;;8.00;66.20;;;;;;5135319;28;20031;-67
2022/03/30 04:34:00;;;;;;;27.02;11.18;;;8.00;65.80;;;;;;5135277;28;20162;-67
2022/03/30 04:36:26;;;;;;;27.38;10.35;;;8.00;65.60;;;;;;5135270;28;20031;-67
2022/03/30 04:38:52;;;;;;;25.58;11.15;;;8.00;65.60;;;;;;5135103;28;20047;-67
2022/03/30 04:41:18;;;;;;;24.80;10.65;;;8.00;66.30;;;;;;5135123;28;20012;-67
2022/03/30 04:43:43;;;;;;;24.42;10.57;;;8.00;65.50;;;;;;5135103;28;20039;-68
2022/03/30 04:46:09;;;;;;;32.83;10.60;;;8.00;65.50;;;;;;5135043;28;20479;-67
2022/03/30 04:48:36;;;;;;;28.55;10.32;;;8.00;65.40;;;;;;5134954;28;20050;-67
2022/03/30 04:51:02;;;;;;;29.75;10.80;;;8.00;65.60;;;;;;5134919;28;20020;-67
2022/03/30 04:53:28;;;;;;;27.45;10.55;;;8.00;65.60;;;;;;5134878;28;20031;-67
2022/03/30 04:55:53;;;;;;;24.83;10.77;;;7.90;65.80;;;;;;5134824;28;20024;-67
2022/03/30 04:58:19;;;;;;;24.27;10.40;;;7.70;66.40;;;;;;5134898;28;20081;-67
2022/03/30 05:00:45;;;;;;;27.02;11.38;;;7.60;66.90;;;;;;5134632;28;20031;-67
2022/03/30 05:03:10;;;;;;;24.48;11.07;;;7.50;67.30;;;;;;5134652;28;20043;-67
2022/03/30 05:05:36;;;;;;;29.98;11.82;;;7.60;67.00;;;;;;5134566;28;20086;-67
2022/03/30 05:08:01;;;;;;;28.83;10.98;;;7.60;66.90;;;;;;5134547;28;20035;-67
2022/03/30 05:10:28;;;;;;;31.42;11.82;;;7.70;66.80;;;;;;5134500;28;20031;-67
2022/03/30 05:12:54;;;;;;;27.98;11.05;;;7.70;66.80;;;;;;5134234;28;20020;-67
2022/03/30 05:15:23;;;;;;;31.42;12.38;;;7.70;66.60;;;;;;5134242;28;20038;-67
2022/03/30 05:17:49;;;;;;;28.02;11.13;;;7.60;66.40;;;;;;5134624;28;20027;-67
2022/03/30 05:20:16;;;;;;;28.83;11.73;;;7.50;66.20;;;;;;5134281;28;20032;-67
2022/03/30 05:22:44;;;;;;;28.05;11.68;;;7.60;66.30;;;;;;5134305;28;20023;-67
2022/03/30 05:25:11;;;;;;;25.35;10.45;;;7.60;66.50;;;;;;5134108;28;20019;-68
2022/03/30 05:27:38;;;;;;;30.70;10.73;;;7.50;66.60;;;;;;5134257;28;20042;-67
2022/03/30 05:30:05;;;;;;;28.40;10.95;;;7.30;67.10;;;;;;5134378;28;20024;-67
2022/03/30 05:32:31;;;;;;;28.13;11.50;;;7.30;67.30;;;;;;5134152;28;20092;-67
2022/03/30 05:34:57;;;;;;;28.63;11.80;;;7.20;67.60;;;;;;5134137;28;20032;-67
2022/03/30 05:37:26;;;;;;;25.30;11.15;;;7.20;67.90;;;;;;5134253;28;20095;-67
2022/03/30 05:39:52;;;;;;;26.65;11.18;;;7.10;68.00;;;;;;5134164;28;20030;-67
2022/03/30 05:42:20;;;;;;;27.92;11.27;;;7.10;68.20;;;;;;5134041;28;20043;-67
2022/03/30 05:44:45;;;;;;;25.13;10.07;;;7.20;68.30;;;;;;5134016;28;20016;-67
2022/03/30 05:47:11;;;;;;;27.10;11.07;;;7.30;67.80;;;;;;5134015;28;20011;-67
2022/03/30 05:49:38;;;;;;;27.63;11.02;;;7.40;67.70;;;;;;5133915;28;20030;-66
2022/03/30 05:52:04;;;;;;;25.60;10.77;;;7.40;67.30;;;;;;5133961;28;20020;-66
2022/03/30 05:54:30;;;;;;;30.48;12.27;;;7.40;67.60;;;;;;5133872;28;20034;-67
2022/03/30 05:57:02;;;;;;;28.50;11.52;;;7.40;67.90;;;;;;5133856;28;20028;-67
2022/03/30 05:59:34;;;;;;;31.23;12.17;;;7.40;68.00;;;;;;5134030;28;20383;-67
2022/03/30 06:02:00;;;;;;;32.90;11.77;;;7.40;67.80;;;;;;5133907;28;20015;-67
2022/03/30 06:04:26;;;;;;;29.25;12.40;;;7.50;67.80;;;;;;5133789;28;20033;-67
2022/03/30 06:06:52;;;;;;;31.75;11.63;;;7.50;68.70;;;;;;5133720;28;20019;-67
2022/03/30 06:09:18;;;;;;;30.15;11.45;;;7.50;67.80;;;;;;5133684;28;20027;-67
2022/03/30 06:11:45;;;;;;;30.20;13.13;;;7.50;68.00;;;;;;5133658;28;20020;-66
2022/03/30 06:14:11;;;;;;;40.65;14.80;;;7.40;68.50;;;;;;5133694;28;20031;-66
2022/03/30 06:16:37;;;;;;;46.28;18.95;;;7.40;68.70;;;;;;5133641;28;20031;-66
2022/03/30 06:19:03;;;;;;;33.60;13.85;;;7.40;68.60;;;;;;5133528;28;20027;-67
2022/03/30 06:21:30;;;;;;;32.53;12.60;;;7.50;68.50;;;;;;5133679;28;20023;-67
2022/03/30 06:23:57;;;;;;;35.35;14.57;;;7.60;68.30;;;;;;5133633;28;20032;-66
2022/03/30 06:26:22;;;;;;;43.95;16.92;;;7.60;68.30;;;;;;5135554;28;20122;-67
2022/03/30 06:28:49;;;;;;;34.83;14.57;;;7.70;68.20;;;;;;5137635;28;20024;-67
2022/03/30 06:31:18;;;;;;;31.25;13.48;;;7.60;68.40;;;;;;5137613;28;20039;-67
2022/03/30 06:33:44;;;;;;;30.25;11.75;;;7.60;68.70;;;;;;5137643;28;20020;-67
2022/03/30 06:36:11;;;;;;;26.42;11.00;;;7.60;69.00;;;;;;5137576;28;20069;-66
2022/03/30 06:38:37;;;;;;;31.40;11.57;;;7.60;68.90;;;;;;5136479;28;20042;-66
2022/03/30 06:41:03;;;;;;;27.80;12.15;;;7.70;69.10;;;;;;5137578;28;20024;-66
2022/03/30 06:43:29;;;;;;;29.73;11.60;;;7.80;68.80;;;;;;5137519;28;20031;-67
2022/03/30 06:45:55;;;;;;;28.42;12.23;;;7.80;68.60;;;;;;5136447;28;20051;-66
2022/03/30 06:48:21;;;;;;;33.47;12.25;;;7.90;68.50;;;;;;5137322;28;20027;-68
2022/03/30 06:50:47;;;;;;;33.60;11.77;;;8.00;68.40;;;;;;5137290;28;20027;-69
2022/03/30 06:53:13;;;;;;;28.92;11.80;;;8.00;68.50;;;;;;5136204;28;20039;-69
2022/03/30 06:55:40;;;;;;;26.27;11.13;;;8.00;68.50;;;;;;5137231;28;20054;-68
2022/03/30 06:58:06;;;;;;;29.30;10.93;;;8.00;68.60;;;;;;5137188;28;20020;-68
2022/03/30 07:00:32;;;;;;;28.20;11.38;;;8.00;68.60;;;;;;5137074;28;20103;-68
2022/03/30 07:02:58;;;;;;;27.55;10.75;;;8.10;68.40;;;;;;5137100;28;20028;-68
2022/03/30 07:05:23;;;;;;;28.67;11.50;;;8.20;68.40;;;;;;5137007;28;20020;-69
2022/03/30 07:10:33;;;;;;;30.42;11.82;;;8.20;68.20;;;;;;5137130;28;20457;-70
2022/03/30 07:13:03;;;;;;;25.13;10.75;;;8.30;68.20;;;;;;5136824;28;20043;-70
2022/03/30 07:15:30;;;;;;;27.60;10.95;;;8.30;68.10;;;;;;5136104;28;20054;-70
2022/03/30 07:17:58;;;;;;;27.38;11.63;;;8.40;68.00;;;;;;5135819;28;20053;-71
2022/03/30 07:20:26;;;;;;;24.05;10.70;;;8.40;67.90;;;;;;5136654;28;20024;-71
2022/03/30 07:22:55;;;;;;;29.58;10.98;;;8.50;67.80;;;;;;5136656;28;20106;-71
2022/03/30 07:25:22;;;;;;;26.55;11.63;;;8.50;68.00;;;;;;5136527;27;20124;-70
2022/03/30 07:27:51;;;;;;;31.05;10.80;;;8.50;68.10;;;;;;5136594;28;20046;-71
2022/03/30 07:30:19;;;;;;;30.00;11.65;;;8.60;68.00;;;;;;5136502;27;20024;-70
2022/03/30 07:32:46;;;;;;;29.98;11.35;;;8.60;68.10;;;;;;5136519;28;20031;-71
2022/03/30 07:35:15;;;;;;;31.42;10.98;;;8.70;68.20;;;;;;5136472;28;20088;-70
2022/03/30 07:37:41;;;;;;;27.30;11.25;;;8.70;68.30;;;;;;5135868;28;20034;-70
2022/03/30 07:40:11;;;;;;;26.40;11.18;;;8.70;68.30;;;;;;5136289;28;20070;-71
2022/03/30 07:42:37;;;;;;;26.15;10.00;;;8.80;68.30;;;;;;5136325;28;20008;-71
2022/03/30 07:45:04;;;;;;;25.75;10.40;;;8.90;68.40;;;;;;5136254;28;20038;-71
2022/03/30 07:47:31;;;;;;;27.38;11.15;;;9.00;68.20;;;;;;5136190;28;20030;-71
2022/03/30 07:49:57;;;;;;;30.60;10.23;;;9.00;68.10;;;;;;5135280;28;20088;-71
2022/03/30 07:52:23;;;;;;;25.13;9.98;;;9.10;67.90;;;;;;5136141;28;20075;-71
2022/03/30 07:54:49;;;;;;;22.40;9.85;;;9.20;67.80;;;;;;5134772;28;20511;-71
2022/03/30 07:57:15;;;;;;;24.75;9.00;;;9.20;67.90;;;;;;5136050;28;20054;-71
2022/03/30 07:59:41;;;;;;;22.75;9.20;;;9.30;67.60;;;;;;5135903;28;20093;-70
2022/03/30 08:02:08;;;;;;;20.10;9.20;;;9.40;67.40;;;;;;5135994;27;20039;-71
2022/03/30 08:04:33;;;;;;;30.92;13.35;;;9.50;67.00;;;;;;5135283;28;20020;-69
2022/03/30 08:06:59;;;;;;;41.40;21.48;;;9.50;66.60;;;;;;5134463;28;20050;-68
2022/03/30 08:09:25;;;;;;;21.92;9.15;;;9.60;66.50;;;;;;5134778;28;20038;-68
2022/03/30 08:11:52;;;;;;;21.10;8.85;;;9.70;66.00;;;;;;5134680;28;20024;-69
2022/03/30 08:14:19;;;;;;;21.65;8.68;;;9.70;66.20;;;;;;5135697;28;20020;-69
2022/03/30 08:16:44;;;;;;;23.67;8.52;;;9.70;66.00;;;;;;5135642;28;20019;-70
2022/03/30 08:19:10;;;;;;;21.67;8.75;;;9.70;65.80;;;;;;5134513;28;20072;-69
2022/03/30 08:24:21;;;;;;;19.70;8.27;;;9.90;66.20;;;;;;5134932;28;20096;-68
2022/03/30 08:26:47;;;;;;;21.95;9.07;;;10.00;65.90;;;;;;5135249;28;20043;-68
2022/03/30 08:29:13;;;;;;;20.23;9.20;;;10.10;65.10;;;;;;5134329;28;20468;-68
2022/03/30 08:31:38;;;;;;;21.15;8.18;;;10.10;66.20;;;;;;5135460;28;20065;-69
2022/03/30 08:34:04;;;;;;;24.58;9.35;;;10.20;65.00;;;;;;5135434;28;20446;-69
2022/03/30 08:36:31;;;;;;;23.58;9.27;;;10.20;65.10;;;;;;5134205;28;20103;-68
2022/03/30 08:39:13;;;;;;;26.17;10.35;;;10.30;65.10;;;;;;5135116;28;20096;-69
2022/03/30 08:41:44;;;;;;;23.60;9.48;;;10.40;65.10;;;;;;5135171;28;20030;-68
2022/03/30 08:44:14;;;;;;;24.90;9.02;;;10.60;65.20;;;;;;5134167;28;20035;-68
2022/03/30 08:46:41;;;;;;;24.20;9.95;;;10.70;64.30;;;;;;5135194;28;20008;-68
2022/03/30 08:49:07;;;;;;;26.00;9.52;;;10.70;63.70;;;;;;5134005;28;20027;-68
2022/03/30 08:51:38;;;;;;;26.42;9.82;;;10.70;63.20;;;;;;5134925;28;20031;-68
2022/03/30 08:54:05;;;;;;;24.27;9.07;;;10.80;64.30;;;;;;5134997;28;20079;-68
2022/03/30 08:56:31;;;;;;;27.20;9.13;;;10.90;64.30;;;;;;5134897;28;20055;-68
2022/03/30 08:59:04;;;;;;;20.75;9.02;;;11.00;63.80;;;;;;5134896;28;20023;-68
2022/03/30 09:01:34;;;;;;;22.60;9.05;;;11.10;63.20;;;;;;5133704;28;20047;-69
2022/03/30 09:04:03;;;;;;;18.85;8.75;;;11.10;63.40;;;;;;5134559;28;20026;-68
2022/03/30 09:06:34;;;;;;;20.02;9.00;;;11.20;63.30;;;;;;5134689;28;20380;-68
2022/03/30 09:09:00;;;;;;;19.45;8.85;;;11.30;63.00;;;;;;5134663;28;20038;-68
2022/03/30 09:11:29;;;;;;;21.33;9.60;;;11.30;62.60;;;;;;5134542;28;20032;-67
2022/03/30 09:14:04;;;;;;;21.40;9.02;;;11.40;62.80;;;;;;5134513;28;20050;-67
2022/03/30 09:16:46;;;;;;;18.13;8.18;;;11.60;62.50;;;;;;5133226;28;20019;-67
2022/03/30 09:19:14;;;;;;;24.38;8.75;;;11.70;61.40;;;;;;5134378;28;20073;-68
2022/03/30 09:21:43;;;;;;;20.77;9.88;;;11.70;61.00;;;;;;5134425;28;20020;-68
2022/03/30 09:24:09;;;;;;;18.45;8.63;;;11.80;61.40;;;;;;5134352;28;20456;-67
2022/03/30 09:26:36;;;;;;;19.65;9.25;;;11.90;61.70;;;;;;5134130;28;20051;-68
2022/03/30 09:29:02;;;;;;;23.45;9.18;;;12.00;62.20;;;;;;5134203;28;20028;-68
2022/03/30 09:31:30;;;;;;;18.90;8.13;;;12.20;61.70;;;;;;5133168;28;20028;-67
2022/03/30 09:33:59;;;;;;;15.63;7.65;;;12.30;60.60;;;;;;5134221;28;20035;-68
2022/03/30 09:36:29;;;;;;;21.85;9.73;;;12.40;59.50;;;;;;5134180;28;20050;-68
2022/03/30 09:38:55;;;;;;;25.58;9.38;;;12.30;58.60;;;;;;5134060;28;20030;-68
2022/03/30 09:41:20;;;;;;;15.68;8.38;;;12.30;58.60;;;;;;5134121;28;20567;-67
2022/03/30 09:43:46;;;;;;;21.73;8.90;;;12.20;58.60;;;;;;5134052;28;20032;-67
2022/03/30 09:46:15;;;;;;;19.67;8.57;;;12.20;59.10;;;;;;5134041;28;20027;-67
2022/03/30 09:48:52;;;;;;;21.60;9.50;;;12.30;59.00;;;;;;5133959;28;20022;-68
2022/03/30 09:51:20;;;;;;;18.95;9.65;;;12.50;59.10;;;;;;5134008;28;20011;-67
2022/03/30 09:53:46;;;;;;;22.08;9.90;;;12.50;58.90;;;;;;5133873;28;20020;-67
2022/03/30 09:56:20;;;;;;;18.10;9.55;;;12.60;58.40;;;;;;5133911;28;20028;-68
2022/03/30 09:58:47;;;;;;;18.85;8.75;;;12.60;58.80;;;;;;5132918;28;20020;-67
2022/03/30 10:01:13;;;;;;;20.38;9.98;;;12.80;58.90;;;;;;5133621;28;20031;-68
2022/03/30 10:03:44;;;;;;;22.70;10.00;;;12.90;58.20;;;;;;5133840;28;20019;-68
2022/03/30 10:06:13;;;;;;;22.75;9.57;;;12.90;57.40;;;;;;5134023;28;20016;-68
2022/03/30 10:08:44;;;;;;;23.10;9.65;;;12.80;57.40;;;;;;5133803;28;20019;-67
2022/03/30 10:11:12;;;;;;;20.95;9.35;;;12.70;57.00;;;;;;5133778;28;20081;-68
2022/03/30 10:13:38;;;;;;;19.15;8.98;;;12.60;57.40;;;;;;5133686;28;20023;-68
2022/03/30 10:16:08;;;;;;;18.88;8.52;;;12.70;58.10;;;;;;5133691;28;20045;-68
2022/03/30 10:18:35;;;;;;;18.08;9.25;;;12.80;57.40;;;;;;5133625;28;20023;-67
2022/03/30 10:21:16;;;;;;;21.63;9.20;;;12.80;56.80;;;;;;5133610;28;20020;-68
2022/03/30 10:23:54;;;;;;;17.63;8.37;;;12.70;56.50;;;;;;5132680;28;20037;-68
2022/03/30 10:26:57;;;;;;;17.27;8.45;;;12.80;57.40;;;;;;5133310;28;20052;-68
2022/03/30 10:29:26;;;;;;;18.33;8.10;;;13.00;57.20;;;;;;5133491;28;20050;-68
2022/03/30 10:32:13;;;;;;;20.60;8.45;;;13.10;55.90;;;;;;5133564;28;20031;-68
2022/03/30 10:34:51;;;;;;;16.70;8.23;;;13.20;56.30;;;;;;5132459;28;20054;-67
2022/03/30 10:37:23;;;;;;;21.63;8.63;;;13.20;55.80;;;;;;5133651;28;20059;-68
2022/03/30 10:40:04;;;;;;;15.95;8.35;;;13.30;55.80;;;;;;5133422;28;20031;-67
2022/03/30 10:42:48;;;;;;;21.65;8.90;;;13.40;55.40;;;;;;5133471;28;20027;-68
2022/03/30 10:45:30;;;;;;;18.48;9.07;;;13.50;54.80;;;;;;5133406;28;20491;-67
2022/03/30 10:48:14;;;;;;;17.80;8.55;;;13.50;53.70;;;;;;5133369;28;20051;-68
2022/03/30 10:50:51;;;;;;;15.85;8.07;;;13.40;53.60;;;;;;5133580;28;20050;-68
2022/03/30 10:53:34;;;;;;;19.38;8.57;;;13.30;53.80;;;;;;5133365;28;20023;-68
2022/03/30 10:56:09;;;;;;;15.25;8.20;;;13.40;55.00;;;;;;5133328;28;20079;-69
2022/03/30 10:58:36;;;;;;;20.55;8.30;;;13.50;54.80;;;;;;5133267;28;20038;-68
2022/03/30 11:01:19;;;;;;;21.50;8.20;;;13.60;54.50;;;;;;5133189;28;20043;-68
2022/03/30 11:04:18;;;;;;;19.58;8.63;;;13.80;53.50;;;;;;5133286;28;20080;-68
2022/03/30 11:07:13;;;;;;;16.13;7.75;;;14.00;52.90;;;;;;5099696;28;20480;-68
2022/03/30 11:09:40;;;;;;;18.38;8.38;;;14.00;52.60;;;;;;5133114;28;20031;-69
2022/03/30 11:12:13;;;;;;;15.52;7.78;;;14.10;53.00;;;;;;5134619;28;20088;-68
2022/03/30 11:14:58;;;;;;;17.65;7.90;;;14.20;51.70;;;;;;5136856;28;20549;-68
2022/03/30 11:17:33;;;;;;;16.20;8.55;;;14.20;52.30;;;;;;5135846;28;20026;-68
2022/03/30 11:19:58;;;;;;;17.80;8.45;;;14.20;52.60;;;;;;5136740;28;20041;-68
2022/03/30 11:22:34;;;;;;;19.60;8.70;;;14.20;51.90;;;;;;5136848;28;20055;-67
2022/03/30 11:25:19;;;;;;;16.88;8.63;;;14.30;51.90;;;;;;5136723;28;20055;-67
2022/03/30 11:28:07;;;;;;;17.27;8.40;;;14.50;52.50;;;;;;5136636;27;20040;-67
2022/03/30 11:30:37;;;;;;;18.20;8.18;;;14.50;51.70;;;;;;5126597;28;20056;-67
2022/03/30 11:33:22;;;;;;;15.07;8.73;;;14.70;51.50;;;;;;5136618;28;20028;-67
2022/03/30 11:35:49;;;;;;;16.95;8.10;;;14.70;50.40;;;;;;5135531;28;20028;-67
2022/03/30 11:38:27;;;;;;;16.25;8.10;;;14.60;50.40;;;;;;5136382;28;20076;-67
2022/03/30 11:41:02;;;;;;;14.57;8.13;;;14.50;50.60;;;;;;5135258;28;20038;-67
2022/03/30 11:43:27;;;;;;;15.88;8.05;;;14.60;50.70;;;;;;5136362;28;20489;-67
2022/03/30 11:45:54;;;;;;;20.10;8.32;;;14.50;49.70;;;;;;5136263;28;20027;-67
2022/03/30 11:48:19;;;;;;;16.10;8.52;;;14.40;50.00;;;;;;5136214;28;20112;-67
2022/03/30 11:50:47;;;;;;;15.27;7.53;;;14.40;50.80;;;;;;5136226;28;20024;-67
2022/03/30 11:53:15;;;;;;;16.17;7.97;;;14.50;52.00;;;;;;5136112;28;20023;-67
2022/03/30 11:56:05;;;;;;;11.45;6.60;;;14.60;51.40;;;;;;5136237;28;20028;-67
2022/03/30 11:58:42;;;;;;;15.48;6.82;;;14.80;50.00;;;;;;5136078;28;20024;-67
2022/03/30 12:01:12;;;;;;;14.05;7.35;;;14.90;50.30;;;;;;5136060;28;20100;-67
2022/03/30 12:03:40;;;;;;;12.82;7.03;;;15.00;50.00;;;;;;5136151;28;20027;-67
2022/03/30 12:06:07;;;;;;;15.65;7.85;;;15.00;48.90;;;;;;5135864;28;20083;-67
2022/03/30 12:08:41;;;;;;;14.65;7.47;;;15.00;48.60;;;;;;5135842;28;20068;-67
2022/03/30 12:11:07;;;;;;;14.50;7.78;;;15.10;48.10;;;;;;5135818;28;20028;-68
2022/03/30 12:13:33;;;;;;;16.55;7.93;;;15.20;48.40;;;;;;5135759;28;20037;-68
2022/03/30 12:16:03;;;;;;;14.27;7.30;;;15.30;48.40;;;;;;5135710;28;20026;-67
2022/03/30 12:18:30;;;;;;;14.57;7.07;;;15.30;48.00;;;;;;5135668;28;20028;-67
2022/03/30 12:21:03;;;;;;;15.55;6.45;;;15.30;47.70;;;;;;5135533;28;20028;-67
2022/03/30 12:23:28;;;;;;;12.27;6.43;;;15.30;46.70;;;;;;5135560;28;20099;-67
2022/03/30 12:25:54;;;;;;;13.27;7.05;;;15.10;46.80;;;;;;5135307;28;20047;-67
2022/03/30 12:28:32;;;;;;;12.30;6.10;;;15.30;47.50;;;;;;5135409;28;20047;-66
2022/03/30 12:30:59;;;;;;;12.23;6.70;;;15.40;47.50;;;;;;5135436;28;20042;-67
2022/03/30 12:33:25;;;;;;;12.57;6.05;;;15.50;47.20;;;;;;5135333;28;20027;-67
2022/03/30 12:35:54;;;;;;;10.02;5.95;;;15.50;45.90;;;;;;5135305;28;20531;-67
2022/03/30 12:38:22;;;;;;;11.70;6.20;;;15.40;46.20;;;;;;5134410;28;20091;-67
2022/03/30 12:40:52;;;;;;;9.68;5.65;;;15.40;46.70;;;;;;5135232;28;20032;-67
2022/03/30 12:43:24;;;;;;;12.48;6.53;;;15.50;47.20;;;;;;5135172;28;20079;-67
2022/03/30 12:45:59;;;;;;;11.87;6.30;;;15.60;47.30;;;;;;5135109;28;20012;-67
2022/03/30 12:48:30;;;;;;;12.13;5.93;;;15.50;46.50;;;;;;5135139;28;20038;-67